sensor_id;sensor_type;location;lat;lon;timestamp;pressure;altitude;pressure_sealevel;temperature;humidity
17260;BME280;8746;49.230;9.220;2023-03-19T00:01:42;99641.47;;;7.41;100.00
17260;BME280;8746;49.230;9.220;2023-03-19T00:04:07;99650.78;;;7.51;100.00
17260;BME280;8746;49.230;9.220;2023-03-19T00:06:32;99646.56;;;7.46;100.00
17260;BME280;8746;49.230;9.220;2023-03-19T00:08:58;99648.50;;;7.41;100.00
17260;BME280;8746;49.230;9.220;2023-03-19T00:11:23;99662.97;;;7.26;100.00
17260;BME280;8746;49.230;9.220;2023-03-19T00:13:49;99663.94;;;7.21;100.00
17260;BME280;8746;49.230;9.220;2023-03-19T00:16:14;99668.59;;;7.13;100.00
17260;BME280;8746;49.230;9.220;2023-03-19T00:18:39;99668.53;;;7.15;100.00
17260;BME280;8746;49.230;9.220;2023-03-19T00:21:05;99677.44;;;7.09;100.00
17260;BME280;8746;49.230;9.220;2023-03-19T00:23:31;99671.38;;;7.07;100.00
17260;BME280;8746;49.230;9.220;2023-03-19T00:25:56;99676.53;;;7.10;100.00
17260;BME280;8746;49.230;9.220;2023-03-19T00:28:21;99673.72;;;7.16;100.00
17260;BME280;8746;49.230;9.220;2023-03-19T00:30:47;99665.84;;;7.16;100.00
17260;BME280;8746;49.230;9.220;2023-03-19T00:33:12;99668.34;;;7.21;100.00
17260;BME280;8746;49.230;9.220;2023-03-19T00:35:39;99667.53;;;7.19;100.00
17260;BME280;8746;49.230;9.220;2023-03-19T00:38:04;99672.72;;;7.20;100.00
17260;BME280;8746;49.230;9.220;2023-03-19T00:40:30;99667.38;;;7.24;100.00
17260;BME280;8746;49.230;9.220;2023-03-19T00:42:56;99672.44;;;7.30;100.00
17260;BME280;8746;49.230;9.220;2023-03-19T00:45:21;99668.91;;;7.31;100.00
17260;BME280;8746;49.230;9.220;2023-03-19T00:47:46;99668.22;;;7.26;100.00
17260;BME280;8746;49.230;9.220;2023-03-19T00:50:11;99670.63;;;7.32;100.00
17260;BME280;8746;49.230;9.220;2023-03-19T00:52:37;99671.22;;;7.40;100.00
17260;BME280;8746;49.230;9.220;2023-03-19T00:55:03;99669.72;;;7.33;100.00
17260;BME280;8746;49.230;9.220;2023-03-19T00:57:28;99663.47;;;7.37;100.00
17260;BME280;8746;49.230;9.220;2023-03-19T00:59:53;99672.94;;;7.41;100.00
17260;BME280;8746;49.230;9.220;2023-03-19T01:02:19;99658.97;;;7.41;100.00
17260;BME280;8746;49.230;9.220;2023-03-19T01:04:47;99666.72;;;7.45;100.00
17260;BME280;8746;49.230;9.220;2023-03-19T01:07:13;99665.25;;;7.63;100.00
17260;BME280;8746;49.230;9.220;2023-03-19T01:09:38;99660.66;;;7.43;100.00
17260;BME280;8746;49.230;9.220;2023-03-19T01:12:06;99652.50;;;7.24;100.00
17260;BME280;8746;49.230;9.220;2023-03-19T01:14:32;99653.16;;;7.31;100.00
17260;BME280;8746;49.230;9.220;2023-03-19T01:16:57;99666.19;;;7.34;100.00
17260;BME280;8746;49.230;9.220;2023-03-19T01:19:22;99659.06;;;7.37;100.00
17260;BME280;8746;49.230;9.220;2023-03-19T01:21:48;99661.66;;;7.39;100.00
17260;BME280;8746;49.230;9.220;2023-03-19T01:24:15;99655.53;;;7.38;100.00
17260;BME280;8746;49.230;9.220;2023-03-19T01:26:41;99659.03;;;7.39;100.00
17260;BME280;8746;49.230;9.220;2023-03-19T01:29:07;99665.00;;;7.44;100.00
17260;BME280;8746;49.230;9.220;2023-03-19T01:31:33;99672.81;;;7.46;100.00
17260;BME280;8746;49.230;9.220;2023-03-19T01:33:59;99665.75;;;7.48;100.00
17260;BME280;8746;49.230;9.220;2023-03-19T01:36:24;99668.72;;;7.37;100.00
17260;BME280;8746;49.230;9.220;2023-03-19T01:38:50;99667.56;;;7.17;100.00
17260;BME280;8746;49.230;9.220;2023-03-19T01:41:15;99678.06;;;7.17;100.00
17260;BME280;8746;49.230;9.220;2023-03-19T01:43:41;99682.41;;;7.18;100.00
17260;BME280;8746;49.230;9.220;2023-03-19T01:48:54;99674.59;;;7.45;100.00
17260;BME280;8746;49.230;9.220;2023-03-19T01:51:26;99676.66;;;7.35;100.00
17260;BME280;8746;49.230;9.220;2023-03-19T01:53:56;99676.59;;;7.37;100.00
17260;BME280;8746;49.230;9.220;2023-03-19T01:56:26;99672.47;;;7.57;100.00
17260;BME280;8746;49.230;9.220;2023-03-19T01:58:56;99670.63;;;7.32;100.00
17260;BME280;8746;49.230;9.220;2023-03-19T02:01:22;99670.63;;;7.32;100.00
17260;BME280;8746;49.230;9.220;2023-03-19T02:03:50;99683.44;;;7.41;100.00
17260;BME280;8746;49.230;9.220;2023-03-19T02:06:18;99686.84;;;7.45;100.00
17260;BME280;8746;49.230;9.220;2023-03-19T02:08:45;99704.06;;;7.53;100.00
17260;BME280;8746;49.230;9.220;2023-03-19T02:11:11;99696.28;;;7.50;100.00
17260;BME280;8746;49.230;9.220;2023-03-19T02:13:36;99700.50;;;7.56;100.00
17260;BME280;8746;49.230;9.220;2023-03-19T02:16:02;99700.50;;;7.56;100.00
17260;BME280;8746;49.230;9.220;2023-03-19T02:18:29;99694.69;;;7.73;100.00
17260;BME280;8746;49.230;9.220;2023-03-19T02:23:50;99707.31;;;7.62;100.00
17260;BME280;8746;49.230;9.220;2023-03-19T02:26:19;99703.03;;;7.59;100.00
17260;BME280;8746;49.230;9.220;2023-03-19T02:28:47;99721.50;;;7.56;100.00
17260;BME280;8746;49.230;9.220;2023-03-19T02:31:14;99723.59;;;7.45;100.00
17260;BME280;8746;49.230;9.220;2023-03-19T02:33:40;99717.28;;;7.50;100.00
17260;BME280;8746;49.230;9.220;2023-03-19T02:36:09;99712.38;;;7.40;100.00
17260;BME280;8746;49.230;9.220;2023-03-19T02:38:38;99707.19;;;7.38;100.00
17260;BME280;8746;49.230;9.220;2023-03-19T02:41:06;99717.69;;;7.38;100.00
17260;BME280;8746;49.230;9.220;2023-03-19T02:43:34;99718.06;;;7.26;100.00
17260;BME280;8746;49.230;9.220;2023-03-19T02:46:01;99711.84;;;7.28;100.00
17260;BME280;8746;49.230;9.220;2023-03-19T02:48:27;99711.84;;;7.28;100.00
17260;BME280;8746;49.230;9.220;2023-03-19T02:50:53;99711.72;;;7.33;100.00
17260;BME280;8746;49.230;9.220;2023-03-19T02:53:19;99706.50;;;7.31;100.00
17260;BME280;8746;49.230;9.220;2023-03-19T02:55:44;99718.81;;;7.29;100.00
17260;BME280;8746;49.230;9.220;2023-03-19T02:58:10;99720.53;;;7.30;100.00
17260;BME280;8746;49.230;9.220;2023-03-19T03:00:35;99712.63;;;7.32;100.00
17260;BME280;8746;49.230;9.220;2023-03-19T03:03:01;99723.88;;;7.35;100.00
17260;BME280;8746;49.230;9.220;2023-03-19T03:05:27;99723.13;;;7.32;100.00
17260;BME280;8746;49.230;9.220;2023-03-19T03:07:52;99731.91;;;7.31;100.00
17260;BME280;8746;49.230;9.220;2023-03-19T03:10:18;99735.16;;;7.39;100.00
17260;BME280;8746;49.230;9.220;2023-03-19T03:12:44;99730.88;;;7.35;100.00
17260;BME280;8746;49.230;9.220;2023-03-19T03:15:10;99736.09;;;7.36;100.00
17260;BME280;8746;49.230;9.220;2023-03-19T03:17:40;99729.13;;;7.35;100.00
17260;BME280;8746;49.230;9.220;2023-03-19T03:20:07;99725.81;;;7.29;100.00
17260;BME280;8746;49.230;9.220;2023-03-19T03:22:34;99727.38;;;7.06;100.00
17260;BME280;8746;49.230;9.220;2023-03-19T03:25:00;99738.78;;;7.05;100.00
17260;BME280;8746;49.230;9.220;2023-03-19T03:27:25;99731.38;;;7.18;100.00
17260;BME280;8746;49.230;9.220;2023-03-19T03:29:51;99741.56;;;6.99;100.00
17260;BME280;8746;49.230;9.220;2023-03-19T03:32:16;99742.66;;;6.92;100.00
17260;BME280;8746;49.230;9.220;2023-03-19T03:34:42;99736.22;;;7.02;100.00
17260;BME280;8746;49.230;9.220;2023-03-19T03:37:07;99734.59;;;6.98;100.00
17260;BME280;8746;49.230;9.220;2023-03-19T03:39:33;99731.88;;;7.01;100.00
17260;BME280;8746;49.230;9.220;2023-03-19T03:41:58;99735.50;;;6.97;100.00
17260;BME280;8746;49.230;9.220;2023-03-19T03:44:24;99745.91;;;7.00;100.00
17260;BME280;8746;49.230;9.220;2023-03-19T03:46:49;99737.00;;;7.05;100.00
17260;BME280;8746;49.230;9.220;2023-03-19T03:49:14;99736.78;;;7.13;100.00
17260;BME280;8746;49.230;9.220;2023-03-19T03:51:40;99740.31;;;7.12;100.00
17260;BME280;8746;49.230;9.220;2023-03-19T03:54:06;99750.06;;;7.07;100.00
17260;BME280;8746;49.230;9.220;2023-03-19T03:56:31;99745.63;;;7.09;100.00
17260;BME280;8746;49.230;9.220;2023-03-19T03:58:57;99748.25;;;7.09;100.00
17260;BME280;8746;49.230;9.220;2023-03-19T04:01:22;99750.06;;;7.07;100.00
17260;BME280;8746;49.230;9.220;2023-03-19T04:03:48;99745.75;;;7.06;100.00
17260;BME280;8746;49.230;9.220;2023-03-19T04:06:16;99758.84;;;7.06;100.00
17260;BME280;8746;49.230;9.220;2023-03-19T04:08:43;99751.78;;;7.08;100.00
17260;BME280;8746;49.230;9.220;2023-03-19T04:11:08;99752.13;;;6.96;100.00
17260;BME280;8746;49.230;9.220;2023-03-19T04:13:34;99746.22;;;6.89;100.00
17260;BME280;8746;49.230;9.220;2023-03-19T04:16:05;99753.09;;;6.93;100.00
17260;BME280;8746;49.230;9.220;2023-03-19T04:18:30;99754.75;;;6.96;100.00
17260;BME280;8746;49.230;9.220;2023-03-19T04:20:56;99751.16;;;7.00;100.00
17260;BME280;8746;49.230;9.220;2023-03-19T04:23:22;99750.41;;;6.95;100.00
17260;BME280;8746;49.230;9.220;2023-03-19T04:25:48;99750.66;;;6.87;100.00
17260;BME280;8746;49.230;9.220;2023-03-19T04:28:13;99754.25;;;6.83;100.00
17260;BME280;8746;49.230;9.220;2023-03-19T04:30:38;99754.09;;;6.87;100.00
17260;BME280;8746;49.230;9.220;2023-03-19T04:33:04;99757.59;;;6.88;100.00
17260;BME280;8746;49.230;9.220;2023-03-19T04:35:30;99752.59;;;6.80;100.00
17260;BME280;8746;49.230;9.220;2023-03-19T04:37:55;99760.34;;;6.83;100.00
17260;BME280;8746;49.230;9.220;2023-03-19T04:40:20;99758.63;;;6.82;100.00
17260;BME280;8746;49.230;9.220;2023-03-19T04:42:46;99757.84;;;6.79;100.00
17260;BME280;8746;49.230;9.220;2023-03-19T04:45:11;99759.53;;;6.81;100.00
17260;BME280;8746;49.230;9.220;2023-03-19T04:47:37;99756.00;;;6.82;100.00
17260;BME280;8746;49.230;9.220;2023-03-19T04:50:05;99757.50;;;6.93;100.00
17260;BME280;8746;49.230;9.220;2023-03-19T04:52:30;99762.97;;;6.83;100.00
17260;BME280;8746;49.230;9.220;2023-03-19T04:54:57;99763.94;;;6.81;100.00
17260;BME280;8746;49.230;9.220;2023-03-19T04:57:22;99769.25;;;6.78;100.00
17260;BME280;8746;49.230;9.220;2023-03-19T04:59:47;99776.09;;;6.83;100.00
17260;BME280;8746;49.230;9.220;2023-03-19T05:02:13;99771.75;;;6.82;100.00
17260;BME280;8746;49.230;9.220;2023-03-19T05:04:38;99775.34;;;6.78;100.00
17260;BME280;8746;49.230;9.220;2023-03-19T05:07:03;99778.81;;;6.80;100.00
17260;BME280;8746;49.230;9.220;2023-03-19T05:09:29;99777.75;;;6.86;100.00
17260;BME280;8746;49.230;9.220;2023-03-19T05:11:55;99778.72;;;6.83;100.00
17260;BME280;8746;49.230;9.220;2023-03-19T05:14:21;99782.09;;;6.87;100.00
17260;BME280;8746;49.230;9.220;2023-03-19T05:16:47;99785.44;;;6.94;100.00
17260;BME280;8746;49.230;9.220;2023-03-19T05:19:12;99785.44;;;6.94;100.00
17260;BME280;8746;49.230;9.220;2023-03-19T05:21:38;99793.13;;;7.00;100.00
17260;BME280;8746;49.230;9.220;2023-03-19T05:24:05;99793.09;;;7.01;100.00
17260;BME280;8746;49.230;9.220;2023-03-19T05:26:30;99800.81;;;7.06;100.00
17260;BME280;8746;49.230;9.220;2023-03-19T05:28:56;99807.94;;;7.01;100.00
17260;BME280;8746;49.230;9.220;2023-03-19T05:31:22;99797.44;;;7.01;100.00
17260;BME280;8746;49.230;9.220;2023-03-19T05:33:47;99801.13;;;6.95;100.00
17260;BME280;8746;49.230;9.220;2023-03-19T05:36:13;99801.06;;;6.97;100.00
17260;BME280;8746;49.230;9.220;2023-03-19T05:38:38;99802.78;;;6.98;100.00
17260;BME280;8746;49.230;9.220;2023-03-19T05:41:06;99801.97;;;6.96;100.00
17260;BME280;8746;49.230;9.220;2023-03-19T05:43:32;99806.31;;;6.97;100.00
17260;BME280;8746;49.230;9.220;2023-03-19T05:45:58;99809.94;;;6.93;100.00
17260;BME280;8746;49.230;9.220;2023-03-19T05:48:24;99815.97;;;6.96;100.00
17260;BME280;8746;49.230;9.220;2023-03-19T05:50:50;99821.09;;;6.99;100.00
17260;BME280;8746;49.230;9.220;2023-03-19T05:53:15;99807.25;;;6.94;100.00
17260;BME280;8746;49.230;9.220;2023-03-19T05:55:41;99811.56;;;6.97;100.00
17260;BME280;8746;49.230;9.220;2023-03-19T05:58:07;99812.41;;;6.97;100.00
17260;BME280;8746;49.230;9.220;2023-03-19T06:00:33;99811.38;;;7.03;100.00
17260;BME280;8746;49.230;9.220;2023-03-19T06:02:58;99816.84;;;6.95;100.00
17260;BME280;8746;49.230;9.220;2023-03-19T06:05:23;99822.16;;;6.92;100.00
17260;BME280;8746;49.230;9.220;2023-03-19T06:07:49;99821.28;;;6.93;100.00
17260;BME280;8746;49.230;9.220;2023-03-19T06:10:14;99828.97;;;6.99;100.00
17260;BME280;8746;49.230;9.220;2023-03-19T06:12:40;99821.03;;;7.02;100.00
17260;BME280;8746;49.230;9.220;2023-03-19T06:15:07;99828.25;;;6.94;100.00
17260;BME280;8746;49.230;9.220;2023-03-19T06:17:33;99829.81;;;7.01;100.00
17260;BME280;8746;49.230;9.220;2023-03-19T06:19:58;99830.47;;;7.10;100.00
17260;BME280;8746;49.230;9.220;2023-03-19T06:22:24;99835.72;;;7.08;100.00
17260;BME280;8746;49.230;9.220;2023-03-19T06:24:49;99845.28;;;7.11;100.00
17260;BME280;8746;49.230;9.220;2023-03-19T06:27:14;99843.22;;;7.22;100.00
17260;BME280;8746;49.230;9.220;2023-03-19T06:29:40;99836.81;;;7.32;100.00
17260;BME280;8746;49.230;9.220;2023-03-19T06:32:05;99838.22;;;7.44;100.00
17260;BME280;8746;49.230;9.220;2023-03-19T06:34:31;99844.16;;;7.51;100.00
17260;BME280;8746;49.230;9.220;2023-03-19T06:36:57;99841.38;;;7.56;100.00
17260;BME280;8746;49.230;9.220;2023-03-19T06:39:22;99835.91;;;7.63;100.00
17260;BME280;8746;49.230;9.220;2023-03-19T06:41:47;99840.31;;;7.63;100.00
17260;BME280;8746;49.230;9.220;2023-03-19T06:44:13;99835.59;;;7.74;100.00
17260;BME280;8746;49.230;9.220;2023-03-19T06:46:38;99837.06;;;7.83;100.00
17260;BME280;8746;49.230;9.220;2023-03-19T06:49:03;99844.84;;;7.86;100.00
17260;BME280;8746;49.230;9.220;2023-03-19T06:51:29;99842.00;;;7.94;100.00
17260;BME280;8746;49.230;9.220;2023-03-19T06:53:54;99841.78;;;8.00;100.00
17260;BME280;8746;49.230;9.220;2023-03-19T06:56:20;99838.19;;;8.04;100.00
17260;BME280;8746;49.230;9.220;2023-03-19T06:58:46;99846.97;;;8.03;100.00
17260;BME280;8746;49.230;9.220;2023-03-19T07:01:12;99848.78;;;8.01;100.00
17260;BME280;8746;49.230;9.220;2023-03-19T07:03:37;99848.00;;;7.97;100.00
17260;BME280;8746;49.230;9.220;2023-03-19T07:06:02;99845.31;;;8.00;100.00
17260;BME280;8746;49.230;9.220;2023-03-19T07:08:28;99846.34;;;7.95;100.00
17260;BME280;8746;49.230;9.220;2023-03-19T07:10:55;99853.56;;;7.88;100.00
17260;BME280;8746;49.230;9.220;2023-03-19T07:13:21;99853.44;;;7.91;100.00
17260;BME280;8746;49.230;9.220;2023-03-19T07:15:48;99866.41;;;7.97;100.00
17260;BME280;8746;49.230;9.220;2023-03-19T07:18:13;99857.75;;;7.94;100.00
17260;BME280;8746;49.230;9.220;2023-03-19T07:20:38;99869.03;;;7.97;100.00
17260;BME280;8746;49.230;9.220;2023-03-19T07:23:04;99867.47;;;7.92;100.00
17260;BME280;8746;49.230;9.220;2023-03-19T07:25:29;99875.94;;;8.00;100.00
17260;BME280;8746;49.230;9.220;2023-03-19T07:27:55;99873.31;;;8.00;100.00
17260;BME280;8746;49.230;9.220;2023-03-19T07:30:20;99877.47;;;8.09;100.00
17260;BME280;8746;49.230;9.220;2023-03-19T07:32:46;99872.28;;;8.06;100.00
17260;BME280;8746;49.230;9.220;2023-03-19T07:35:11;99877.53;;;8.06;100.00
17260;BME280;8746;49.230;9.220;2023-03-19T07:37:38;99879.59;;;7.96;100.00
17260;BME280;8746;49.230;9.220;2023-03-19T07:40:04;99880.22;;;8.04;100.00
17260;BME280;8746;49.230;9.220;2023-03-19T07:42:29;99871.19;;;8.13;100.00
17260;BME280;8746;49.230;9.220;2023-03-19T07:44:55;99866.69;;;8.16;100.00
17260;BME280;8746;49.230;9.220;2023-03-19T07:47:20;99880.28;;;8.29;100.00
17260;BME280;8746;49.230;9.220;2023-03-19T07:49:46;99862.25;;;8.47;100.00
17260;BME280;8746;49.230;9.220;2023-03-19T07:52:11;99871.91;;;8.46;100.00
17260;BME280;8746;49.230;9.220;2023-03-19T07:54:37;99867.94;;;8.61;100.00
17260;BME280;8746;49.230;9.220;2023-03-19T07:57:02;99868.47;;;8.71;100.00
17260;BME280;8746;49.230;9.220;2023-03-19T07:59:28;99862.41;;;8.69;100.00
17260;BME280;8746;49.230;9.220;2023-03-19T08:01:53;99867.34;;;8.78;100.00
17260;BME280;8746;49.230;9.220;2023-03-19T08:04:18;99874.59;;;8.97;100.00
17260;BME280;8746;49.230;9.220;2023-03-19T08:06:44;99865.59;;;9.04;100.00
17260;BME280;8746;49.230;9.220;2023-03-19T08:09:09;99869.91;;;9.05;100.00
17260;BME280;8746;49.230;9.220;2023-03-19T08:11:35;99875.34;;;9.26;100.00
17260;BME280;8746;49.230;9.220;2023-03-19T08:14:01;99868.84;;;9.36;100.00
17260;BME280;8746;49.230;9.220;2023-03-19T08:16:26;99873.81;;;9.44;100.00
17260;BME280;8746;49.230;9.220;2023-03-19T08:18:51;99869.97;;;9.53;100.00
17260;BME280;8746;49.230;9.220;2023-03-19T08:21:17;99864.47;;;9.59;100.00
17260;BME280;8746;49.230;9.220;2023-03-19T08:23:42;99860.88;;;9.61;100.00
17260;BME280;8746;49.230;9.220;2023-03-19T08:26:08;99863.94;;;9.51;100.00
17260;BME280;8746;49.230;9.220;2023-03-19T08:28:33;99865.19;;;9.64;100.00
17260;BME280;8746;49.230;9.220;2023-03-19T08:31:06;99856.34;;;9.65;100.00
17260;BME280;8746;49.230;9.220;2023-03-19T08:33:31;99861.16;;;9.54;100.00
17260;BME280;8746;49.230;9.220;2023-03-19T08:36:09;99862.88;;;9.78;100.00
17260;BME280;8746;49.230;9.220;2023-03-19T08:38:35;99866.63;;;9.95;100.00
17260;BME280;8746;49.230;9.220;2023-03-19T08:41:01;99865.72;;;9.96;100.00
17260;BME280;8746;49.230;9.220;2023-03-19T08:43:31;99863.63;;;10.04;100.00
17260;BME280;8746;49.230;9.220;2023-03-19T08:45:58;99867.50;;;10.18;100.00
17260;BME280;8746;49.230;9.220;2023-03-19T08:48:23;99865.31;;;10.29;100.00
17260;BME280;8746;49.230;9.220;2023-03-19T08:50:56;99864.59;;;10.48;100.00
17260;BME280;8746;49.230;9.220;2023-03-19T08:53:22;99867.00;;;10.74;100.00
17260;BME280;8746;49.230;9.220;2023-03-19T08:55:52;99877.31;;;11.01;100.00
17260;BME280;8746;49.230;9.220;2023-03-19T08:58:18;99878.03;;;11.26;100.00
17260;BME280;8746;49.230;9.220;2023-03-19T09:00:44;99873.84;;;11.20;99.73
17260;BME280;8746;49.230;9.220;2023-03-19T09:03:10;99879.63;;;11.49;98.31
17260;BME280;8746;49.230;9.220;2023-03-19T09:05:35;99880.50;;;11.68;98.39
17260;BME280;8746;49.230;9.220;2023-03-19T09:08:00;99874.69;;;11.79;97.40
17260;BME280;8746;49.230;9.220;2023-03-19T09:10:26;99874.38;;;11.87;96.93
17260;BME280;8746;49.230;9.220;2023-03-19T09:12:51;99870.75;;;12.09;96.32
17260;BME280;8746;49.230;9.220;2023-03-19T09:15:17;99875.28;;;12.24;92.97
17260;BME280;8746;49.230;9.220;2023-03-19T09:17:42;99876.91;;;12.27;91.23
17260;BME280;8746;49.230;9.220;2023-03-19T09:20:08;99879.03;;;12.38;90.79
17260;BME280;8746;49.230;9.220;2023-03-19T09:22:34;99880.91;;;12.35;90.78
17260;BME280;8746;49.230;9.220;2023-03-19T09:24:59;99872.03;;;12.37;89.16
17260;BME280;8746;49.230;9.220;2023-03-19T09:27:25;99879.66;;;12.25;85.31
17260;BME280;8746;49.230;9.220;2023-03-19T09:29:51;99868.97;;;12.63;86.48
17260;BME280;8746;49.230;9.220;2023-03-19T09:32:16;99873.00;;;12.53;88.63
17260;BME280;8746;49.230;9.220;2023-03-19T09:34:41;99877.81;;;12.45;86.33
17260;BME280;8746;49.230;9.220;2023-03-19T09:37:07;99864.44;;;12.48;88.22
17260;BME280;8746;49.230;9.220;2023-03-19T09:39:32;99869.03;;;12.62;88.04
17260;BME280;8746;49.230;9.220;2023-03-19T09:45:15;99864.63;;;12.80;80.44
17260;BME280;8746;49.230;9.220;2023-03-19T09:47:41;99863.19;;;13.25;78.49
17260;BME280;8746;49.230;9.220;2023-03-19T09:50:13;99860.53;;;13.25;76.66
17260;BME280;8746;49.230;9.220;2023-03-19T09:55:44;99844.06;;;14.02;74.82
17260;BME280;8746;49.230;9.220;2023-03-19T09:58:21;99854.72;;;14.32;75.95
17260;BME280;8746;49.230;9.220;2023-03-19T10:00:49;99839.59;;;14.18;73.46
17260;BME280;8746;49.230;9.220;2023-03-19T10:03:33;99844.91;;;14.18;71.82
17260;BME280;8746;49.230;9.220;2023-03-19T10:06:05;99838.91;;;14.31;69.13
17260;BME280;8746;49.230;9.220;2023-03-19T10:12:01;99843.03;;;15.26;62.86
17260;BME280;8746;49.230;9.220;2023-03-19T10:17:16;99838.47;;;15.57;60.92
17260;BME280;8746;49.230;9.220;2023-03-19T10:19:48;99840.84;;;15.76;61.66
17260;BME280;8746;49.230;9.220;2023-03-19T10:22:19;99831.81;;;16.48;57.46
17260;BME280;8746;49.230;9.220;2023-03-19T10:24:47;99836.56;;;16.43;57.01
17260;BME280;8746;49.230;9.220;2023-03-19T10:27:16;99844.56;;;16.43;60.49
17260;BME280;8746;49.230;9.220;2023-03-19T10:29:42;99835.97;;;17.05;56.96
17260;BME280;8746;49.230;9.220;2023-03-19T10:32:42;99834.69;;;17.11;56.80
17260;BME280;8746;49.230;9.220;2023-03-19T10:35:17;99830.38;;;16.82;56.06
17260;BME280;8746;49.230;9.220;2023-03-19T10:37:44;99833.63;;;17.01;56.98
17260;BME280;8746;49.230;9.220;2023-03-19T10:40:43;99825.28;;;17.31;53.99
17260;BME280;8746;49.230;9.220;2023-03-19T10:43:19;99822.19;;;17.50;53.14
17260;BME280;8746;49.230;9.220;2023-03-19T10:45:46;99817.09;;;17.84;52.57
17260;BME280;8746;49.230;9.220;2023-03-19T10:48:16;99827.63;;;17.86;52.74
17260;BME280;8746;49.230;9.220;2023-03-19T10:50:57;99822.69;;;17.55;52.69
17260;BME280;8746;49.230;9.220;2023-03-19T10:53:35;99827.00;;;17.95;55.02
17260;BME280;8746;49.230;9.220;2023-03-19T10:58:31;99814.53;;;17.83;48.66
17260;BME280;8746;49.230;9.220;2023-03-19T11:01:10;99816.13;;;17.35;53.13
17260;BME280;8746;49.230;9.220;2023-03-19T11:03:37;99815.63;;;17.80;51.60
17260;BME280;8746;49.230;9.220;2023-03-19T11:06:25;99821.53;;;17.59;51.08
17260;BME280;8746;49.230;9.220;2023-03-19T11:08:56;99811.25;;;17.03;50.24
17260;BME280;8746;49.230;9.220;2023-03-19T11:11:31;99811.06;;;18.06;49.58
17260;BME280;8746;49.230;9.220;2023-03-19T11:14:05;99812.47;;;17.99;49.12
17260;BME280;8746;49.230;9.220;2023-03-19T11:16:31;99808.22;;;18.21;49.11
17260;BME280;8746;49.230;9.220;2023-03-19T11:18:57;99811.91;;;19.14;49.03
17260;BME280;8746;49.230;9.220;2023-03-19T11:21:29;99809.47;;;18.99;47.70
17260;BME280;8746;49.230;9.220;2023-03-19T11:24:02;99807.00;;;19.98;46.59
17260;BME280;8746;49.230;9.220;2023-03-19T11:26:28;99800.94;;;19.62;43.86
17260;BME280;8746;49.230;9.220;2023-03-19T11:29:01;99803.13;;;19.80;44.34
17260;BME280;8746;49.230;9.220;2023-03-19T11:31:33;99799.44;;;18.90;45.45
17260;BME280;8746;49.230;9.220;2023-03-19T11:34:10;99796.44;;;19.06;44.52
17260;BME280;8746;49.230;9.220;2023-03-19T11:49:40;99785.75;;;18.95;44.15
17260;BME280;8746;49.230;9.220;2023-03-19T11:52:17;99772.31;;;17.76;44.80
17260;BME280;8746;49.230;9.220;2023-03-19T11:55:11;99776.31;;;17.95;47.41
17260;BME280;8746;49.230;9.220;2023-03-19T11:57:54;99766.38;;;18.68;45.89
17260;BME280;8746;49.230;9.220;2023-03-19T12:00:28;99762.09;;;18.19;45.43
17260;BME280;8746;49.230;9.220;2023-03-19T12:08:36;99762.84;;;18.21;47.04
17260;BME280;8746;49.230;9.220;2023-03-19T12:14:31;99757.22;;;18.13;46.25
17260;BME280;8746;49.230;9.220;2023-03-19T12:20:05;99755.31;;;17.77;48.87
17260;BME280;8746;49.230;9.220;2023-03-19T12:25:29;99771.25;;;17.29;49.62
17260;BME280;8746;49.230;9.220;2023-03-19T12:28:13;99762.38;;;17.28;48.35
17260;BME280;8746;49.230;9.220;2023-03-19T12:35:55;99765.81;;;17.18;50.03
17260;BME280;8746;49.230;9.220;2023-03-19T12:38:36;99765.34;;;17.37;50.94
17260;BME280;8746;49.230;9.220;2023-03-19T12:41:06;99766.47;;;16.95;49.37
17260;BME280;8746;49.230;9.220;2023-03-19T12:44:18;99763.91;;;16.94;50.17
17260;BME280;8746;49.230;9.220;2023-03-19T12:46:30;99768.75;;;16.48;51.55
17260;BME280;8746;49.230;9.220;2023-03-19T12:49:05;99764.31;;;16.88;52.35
17260;BME280;8746;49.230;9.220;2023-03-19T12:51:37;99767.66;;;17.04;50.49
17260;BME280;8746;49.230;9.220;2023-03-19T12:54:07;99759.38;;;17.33;50.19
17260;BME280;8746;49.230;9.220;2023-03-19T12:56:40;99763.47;;;17.63;49.80
17260;BME280;8746;49.230;9.220;2023-03-19T12:59:35;99756.78;;;17.57;48.55
17260;BME280;8746;49.230;9.220;2023-03-19T13:02:20;99762.94;;;17.58;49.56
17260;BME280;8746;49.230;9.220;2023-03-19T13:05:16;99760.06;;;16.98;49.66
17260;BME280;8746;49.230;9.220;2023-03-19T13:07:51;99757.91;;;16.64;50.82
17260;BME280;8746;49.230;9.220;2023-03-19T13:10:21;99760.88;;;16.60;51.72
17260;BME280;8746;49.230;9.220;2023-03-19T13:12:49;99760.00;;;16.33;52.11
17260;BME280;8746;49.230;9.220;2023-03-19T13:15:26;99758.06;;;16.23;51.95
17260;BME280;8746;49.230;9.220;2023-03-19T13:23:08;99758.69;;;16.26;50.63
17260;BME280;8746;49.230;9.220;2023-03-19T13:25:41;99753.38;;;16.39;50.87
17260;BME280;8746;49.230;9.220;2023-03-19T13:28:10;99756.84;;;16.54;50.84
17260;BME280;8746;49.230;9.220;2023-03-19T13:30:36;99759.81;;;16.62;50.77
17260;BME280;8746;49.230;9.220;2023-03-19T13:33:12;99755.31;;;16.50;51.20
17260;BME280;8746;49.230;9.220;2023-03-19T13:35:43;99758.06;;;16.23;51.83
17260;BME280;8746;49.230;9.220;2023-03-19T13:38:18;99756.75;;;16.15;52.18
17260;BME280;8746;49.230;9.220;2023-03-19T13:40:48;99757.28;;;16.21;52.20
17260;BME280;8746;49.230;9.220;2023-03-19T13:45:53;99759.81;;;15.82;52.81
17260;BME280;8746;49.230;9.220;2023-03-19T13:51:08;99766.63;;;15.44;55.19
17260;BME280;8746;49.230;9.220;2023-03-19T13:54:14;99765.09;;;15.40;55.13
17260;BME280;8746;49.230;9.220;2023-03-19T13:59:39;99771.56;;;15.21;55.81
17260;BME280;8746;49.230;9.220;2023-03-19T14:04:50;99769.84;;;15.20;56.23
17260;BME280;8746;49.230;9.220;2023-03-19T14:07:19;99763.22;;;15.13;55.20
17260;BME280;8746;49.230;9.220;2023-03-19T14:12:28;99765.03;;;15.13;55.47
17260;BME280;8746;49.230;9.220;2023-03-19T14:15:02;99762.56;;;15.24;56.02
17260;BME280;8746;49.230;9.220;2023-03-19T14:17:32;99761.44;;;15.28;55.11
17260;BME280;8746;49.230;9.220;2023-03-19T14:22:39;99761.69;;;15.38;55.39
17260;BME280;8746;49.230;9.220;2023-03-19T14:25:20;99754.00;;;15.33;55.76
17260;BME280;8746;49.230;9.220;2023-03-19T14:27:47;99765.41;;;15.21;56.54
17260;BME280;8746;49.230;9.220;2023-03-19T14:32:58;99760.28;;;15.18;55.71